Time;durP1;ratioP1;P1;durP2;ratioP2;P2;SDS_P1;SDS_P2;PMS_P1;PMS_P2;Temp;Humidity;BMP_temperature;BMP_pressure;BME280_temperature;BME280_humidity;BME280_pressure;Samples;Min_cycle;Max_cycle;Signal;HPM_P1;HPM_P2
2022/03/09 00:01:50;;;;;;;17.17;9.20;;;1.50;60.40;;;;;;4989146;28;20237;-82
2022/03/09 00:04:18;;;;;;;13.48;8.05;;;1.50;60.70;;;;;;4988928;28;20205;-82
2022/03/09 00:06:46;;;;;;;21.10;9.00;;;1.50;60.60;;;;;;5003701;28;20829;-81
2022/03/09 00:09:14;;;;;;;16.17;8.90;;;1.50;60.60;;;;;;4985698;28;20243;-81
2022/03/09 00:11:42;;;;;;;20.60;10.70;;;1.50;60.60;;;;;;4987722;28;20683;-80
2022/03/09 00:14:12;;;;;;;17.73;10.98;;;1.60;60.80;;;;;;4987293;28;20880;-80
2022/03/09 00:16:39;;;;;;;20.20;11.25;;;1.70;60.90;;;;;;4988322;28;20226;-85
2022/03/09 00:19:10;;;;;;;17.77;9.30;;;1.80;60.80;;;;;;4988643;28;20226;-84
2022/03/09 00:21:38;;;;;;;20.17;11.13;;;1.90;60.80;;;;;;4988963;28;20198;-86
2022/03/09 00:24:07;;;;;;;17.98;10.80;;;2.00;60.70;;;;;;4986492;28;20206;-85
2022/03/09 00:26:35;;;;;;;19.17;10.95;;;2.10;60.60;;;;;;4987727;28;20282;-84
2022/03/09 00:29:04;;;;;;;14.98;9.32;;;2.10;60.50;;;;;;5002992;28;20908;-84
2022/03/09 00:31:33;;;;;;;16.58;10.68;;;2.10;60.50;;;;;;4987720;28;20227;-84
2022/03/09 00:34:01;;;;;;;19.63;10.40;;;2.10;60.50;;;;;;4987601;28;20209;-83
2022/03/09 00:36:32;;;;;;;19.70;11.75;;;2.00;60.40;;;;;;4986275;28;20202;-84
2022/03/09 00:39:00;;;;;;;23.33;12.35;;;2.00;60.30;;;;;;4988163;28;20230;-84
2022/03/09 00:41:28;;;;;;;21.58;12.73;;;1.90;60.30;;;;;;4988914;28;20257;-84
2022/03/09 00:43:56;;;;;;;25.10;13.38;;;1.90;60.30;;;;;;4987748;28;20218;-84
2022/03/09 00:46:24;;;;;;;23.58;13.55;;;1.90;60.30;;;;;;4988218;28;20691;-84
2022/03/09 00:48:54;;;;;;;23.25;13.40;;;1.90;60.40;;;;;;4987988;28;20242;-84
2022/03/09 00:51:22;;;;;;;26.00;14.73;;;1.80;60.40;;;;;;5003349;28;20727;-84
2022/03/09 00:53:51;;;;;;;68.57;31.65;;;1.90;60.50;;;;;;5001459;28;20207;-83
2022/03/09 00:56:19;;;;;;;44.47;23.08;;;1.80;60.50;;;;;;4987726;28;20573;-84
2022/03/09 00:58:48;;;;;;;25.13;14.80;;;1.80;60.60;;;;;;4987959;28;20246;-85
2022/03/09 01:01:16;;;;;;;27.20;15.18;;;1.80;60.60;;;;;;4987335;28;20218;-84
2022/03/09 01:03:44;;;;;;;23.45;13.57;;;1.80;60.70;;;;;;4987544;28;20668;-84
2022/03/09 01:06:15;;;;;;;17.50;11.45;;;1.90;60.70;;;;;;5001929;28;20202;-84
2022/03/09 01:08:43;;;;;;;16.52;9.98;;;1.90;60.70;;;;;;4982616;28;20230;-83
2022/03/09 01:11:11;;;;;;;17.17;10.40;;;1.90;60.70;;;;;;5002629;28;20206;-84
2022/03/09 01:13:39;;;;;;;15.70;9.35;;;1.90;60.70;;;;;;4991382;28;20209;-83
2022/03/09 01:16:08;;;;;;;20.52;12.18;;;1.90;60.50;;;;;;5007950;28;20227;-83
2022/03/09 01:18:36;;;;;;;18.05;11.27;;;1.80;60.50;;;;;;4991395;28;20650;-84
2022/03/09 01:21:04;;;;;;;18.20;11.50;;;1.80;60.50;;;;;;4993657;28;20206;-84
2022/03/09 01:23:34;;;;;;;18.58;11.38;;;1.70;60.70;;;;;;4992440;28;20256;-84
2022/03/09 01:26:02;;;;;;;20.60;11.48;;;1.70;60.70;;;;;;5008458;28;20211;-84
2022/03/09 01:28:30;;;;;;;27.45;11.25;;;1.70;60.70;;;;;;4995019;28;20203;-84
2022/03/09 01:30:58;;;;;;;17.00;11.00;;;1.60;60.70;;;;;;4987312;28;20320;-84
2022/03/09 01:33:28;;;;;;;32.80;17.90;;;1.60;60.50;;;;;;5002048;28;20539;-84
2022/03/09 01:35:56;;;;;;;55.35;27.13;;;1.50;60.70;;;;;;4991842;28;20211;-84
2022/03/09 01:38:24;;;;;;;38.72;18.30;;;1.50;60.70;;;;;;4991702;28;20924;-84
2022/03/09 01:40:54;;;;;;;26.50;14.73;;;1.50;60.70;;;;;;4994400;28;20835;-84
2022/03/09 01:43:22;;;;;;;18.30;11.65;;;1.40;60.80;;;;;;4990252;28;20207;-82
2022/03/09 01:45:52;;;;;;;20.65;11.65;;;1.50;60.90;;;;;;4986115;28;20238;-82
2022/03/09 01:48:20;;;;;;;15.75;10.57;;;1.50;60.90;;;;;;4999552;28;20214;-81
2022/03/09 01:50:48;;;;;;;20.20;11.52;;;1.40;60.90;;;;;;4987259;28;20206;-81
2022/03/09 01:53:18;;;;;;;20.35;11.50;;;1.40;60.80;;;;;;5007589;28;20207;-84
2022/03/09 01:55:46;;;;;;;24.17;13.25;;;1.40;60.90;;;;;;5001436;28;20210;-83
2022/03/09 01:58:16;;;;;;;25.00;14.23;;;1.40;60.90;;;;;;4983657;28;20202;-84
2022/03/09 02:00:44;;;;;;;24.63;14.98;;;1.30;61.00;;;;;;4985967;28;20237;-83
2022/03/09 02:03:12;;;;;;;25.98;14.63;;;1.30;60.90;;;;;;4990425;28;20266;-83
2022/03/09 02:05:40;;;;;;;24.02;13.77;;;1.20;60.80;;;;;;4987528;28;20282;-83
2022/03/09 02:10:54;;;;;;;27.95;17.10;;;1.10;61.20;;;;;;4985971;28;20191;-84
2022/03/09 02:13:23;;;;;;;44.30;18.55;;;1.10;61.30;;;;;;4985609;28;20206;-83
2022/03/09 02:15:51;;;;;;;33.17;18.38;;;1.10;61.30;;;;;;4985982;28;20234;-83
2022/03/09 02:18:21;;;;;;;29.15;17.25;;;1.10;61.30;;;;;;4985111;28;20687;-83
2022/03/09 02:20:53;;;;;;;31.27;14.93;;;1.00;61.20;;;;;;4985489;28;20238;-84
2022/03/09 02:23:22;;;;;;;23.48;12.70;;;1.00;61.20;;;;;;4984912;28;20269;-81
2022/03/09 02:25:51;;;;;;;27.77;12.32;;;0.90;61.30;;;;;;4988361;28;20680;-83
2022/03/09 02:28:19;;;;;;;26.30;12.60;;;0.90;61.30;;;;;;4991417;28;20206;-83
2022/03/09 02:30:47;;;;;;;24.73;13.75;;;0.90;61.40;;;;;;5005003;28;20243;-83
2022/03/09 02:33:16;;;;;;;24.50;14.63;;;0.80;61.30;;;;;;4987931;28;20202;-85
2022/03/09 02:35:45;;;;;;;15.80;10.15;;;0.80;61.50;;;;;;4990142;28;20757;-85
2022/03/09 02:38:13;;;;;;;17.27;9.90;;;0.80;61.50;;;;;;4988974;28;20194;-84
2022/03/09 02:40:42;;;;;;;17.08;9.68;;;0.70;61.50;;;;;;4988742;28;20559;-84
2022/03/09 02:43:10;;;;;;;18.52;11.77;;;0.70;61.60;;;;;;5002909;28;20207;-84
2022/03/09 02:45:38;;;;;;;19.45;11.65;;;0.70;61.70;;;;;;4986483;28;20234;-83
2022/03/09 02:48:06;;;;;;;21.38;12.02;;;0.80;61.70;;;;;;4987971;28;20298;-85
2022/03/09 02:50:35;;;;;;;21.23;12.02;;;0.80;61.80;;;;;;4984734;28;20214;-83
2022/03/09 02:53:03;;;;;;;19.50;12.40;;;0.80;61.80;;;;;;4984163;28;20219;-83
2022/03/09 02:55:31;;;;;;;19.33;11.15;;;0.80;61.80;;;;;;5000383;28;20221;-83
2022/03/09 02:58:00;;;;;;;23.17;11.98;;;0.80;61.70;;;;;;4985935;28;20221;-82
2022/03/09 03:00:28;;;;;;;20.55;11.20;;;0.80;61.70;;;;;;4985852;28;20658;-82
2022/03/09 03:02:56;;;;;;;21.80;11.95;;;0.70;61.70;;;;;;4989488;28;20841;-82
2022/03/09 03:05:25;;;;;;;18.95;11.93;;;0.70;61.80;;;;;;4999440;28;20218;-81
2022/03/09 03:07:53;;;;;;;22.77;12.20;;;0.80;61.80;;;;;;4987084;28;20206;-83
2022/03/09 03:10:21;;;;;;;17.73;11.75;;;0.70;61.80;;;;;;4988527;28;20234;-84
2022/03/09 03:12:49;;;;;;;23.75;13.18;;;0.70;61.80;;;;;;5002010;28;20720;-83
2022/03/09 03:15:19;;;;;;;20.42;13.18;;;0.70;61.80;;;;;;4987100;28;20202;-84
2022/03/09 03:17:47;;;;;;;20.17;11.93;;;0.70;61.80;;;;;;4984177;28;20221;-84
2022/03/09 03:20:15;;;;;;;44.95;21.58;;;0.70;61.90;;;;;;4981551;28;20276;-83
2022/03/09 03:22:43;;;;;;;29.52;13.90;;;0.70;61.80;;;;;;4984242;28;20202;-83
2022/03/09 03:25:11;;;;;;;25.08;13.95;;;0.70;61.80;;;;;;4988188;28;20202;-84
2022/03/09 03:27:39;;;;;;;20.70;12.40;;;0.60;61.70;;;;;;4987861;28;20849;-84
2022/03/09 03:30:08;;;;;;;29.77;14.52;;;0.60;61.90;;;;;;4984241;28;20264;-84
2022/03/09 03:32:37;;;;;;;21.83;12.73;;;0.60;61.90;;;;;;4986914;28;20214;-83
2022/03/09 03:35:08;;;;;;;21.05;12.18;;;0.60;62.00;;;;;;4983018;28;20202;-84
2022/03/09 03:37:36;;;;;;;23.90;14.55;;;0.60;62.00;;;;;;5001046;28;20205;-83
2022/03/09 03:40:05;;;;;;;28.92;16.55;;;0.60;62.10;;;;;;4996418;28;20230;-82
2022/03/09 03:42:33;;;;;;;21.20;12.68;;;0.60;61.90;;;;;;4984523;28;20241;-83
2022/03/09 03:45:01;;;;;;;24.35;12.73;;;0.50;61.90;;;;;;4988534;28;20245;-83
2022/03/09 03:47:29;;;;;;;22.77;13.40;;;0.50;62.00;;;;;;4987115;28;20296;-83
2022/03/09 03:49:58;;;;;;;23.95;12.95;;;0.50;62.20;;;;;;5002591;28;20235;-84
2022/03/09 03:52:26;;;;;;;16.95;11.10;;;0.50;62.30;;;;;;4983009;28;20796;-84
2022/03/09 03:54:57;;;;;;;17.88;10.63;;;0.50;62.30;;;;;;4986495;28;20211;-84
2022/03/09 03:57:25;;;;;;;23.20;11.40;;;0.50;62.20;;;;;;4986369;28;20671;-81
2022/03/09 03:59:53;;;;;;;30.83;15.70;;;0.50;62.20;;;;;;4984835;28;20222;-82
2022/03/09 04:02:21;;;;;;;30.10;16.45;;;0.40;62.10;;;;;;4986401;28;20227;-83
2022/03/09 04:04:50;;;;;;;21.67;11.70;;;0.40;62.10;;;;;;4993058;28;20301;-82
2022/03/09 04:07:20;;;;;;;22.00;13.63;;;0.30;62.00;;;;;;4989536;28;20249;-82
2022/03/09 04:09:48;;;;;;;22.00;12.68;;;0.20;62.00;;;;;;4999459;28;20226;-83
2022/03/09 04:12:16;;;;;;;32.83;16.05;;;0.20;62.00;;;;;;4995847;28;20198;-84
2022/03/09 04:14:44;;;;;;;25.25;14.07;;;0.10;62.20;;;;;;5008532;28;20206;-83
2022/03/09 04:17:15;;;;;;;23.50;13.15;;;0.10;62.40;;;;;;4992684;28;20228;-83
2022/03/09 04:19:43;;;;;;;17.90;12.38;;;0.10;62.40;;;;;;4994682;28;20230;-84
2022/03/09 04:22:12;;;;;;;20.20;12.45;;;0.10;62.30;;;;;;4994469;28;20207;-84
2022/03/09 04:24:42;;;;;;;20.20;11.65;;;0.00;62.20;;;;;;4988927;28;20202;-83
2022/03/09 04:27:10;;;;;;;20.95;11.88;;;0.00;62.40;;;;;;4989575;28;20210;-86
2022/03/09 04:29:38;;;;;;;17.40;10.65;;;-0.10;62.30;;;;;;4993325;28;20230;-85
2022/03/09 04:32:08;;;;;;;20.33;13.07;;;-0.20;62.40;;;;;;5007216;28;20285;-83
2022/03/09 04:34:37;;;;;;;27.15;14.90;;;-0.20;62.60;;;;;;4992540;28;20265;-82
2022/03/09 04:37:06;;;;;;;26.95;15.02;;;-0.20;62.80;;;;;;4982150;28;20233;-81
2022/03/09 04:39:33;;;;;;;23.13;15.20;;;-0.20;63.00;;;;;;4989830;28;20905;-82
2022/03/09 04:42:03;;;;;;;26.35;13.98;;;-0.20;62.80;;;;;;4982054;28;20871;-80
2022/03/09 04:44:31;;;;;;;26.95;14.02;;;-0.20;63.00;;;;;;4991248;28;20218;-83
2022/03/09 04:46:59;;;;;;;23.50;13.00;;;-0.10;63.10;;;;;;5004517;28;20230;-83
2022/03/09 04:49:27;;;;;;;19.17;11.63;;;0.00;63.10;;;;;;5004975;28;20265;-83
2022/03/09 04:51:55;;;;;;;20.23;12.93;;;0.00;63.10;;;;;;5005106;28;20198;-83
2022/03/09 04:54:23;;;;;;;28.42;14.65;;;0.00;63.10;;;;;;4988993;28;20676;-83
2022/03/09 04:56:51;;;;;;;24.13;15.35;;;0.00;63.10;;;;;;4987517;28;20213;-84
2022/03/09 04:59:21;;;;;;;20.50;13.13;;;0.00;62.90;;;;;;4993309;28;20234;-82
2022/03/09 05:01:49;;;;;;;22.33;13.60;;;-0.10;62.90;;;;;;4986033;28;20276;-83
2022/03/09 05:04:17;;;;;;;20.10;12.20;;;-0.10;63.10;;;;;;4987411;28;20211;-82
2022/03/09 05:06:45;;;;;;;17.73;11.05;;;-0.10;63.20;;;;;;4988171;28;20221;-82
2022/03/09 05:09:14;;;;;;;14.57;10.43;;;-0.10;63.10;;;;;;4986628;28;20218;-82
2022/03/09 05:11:42;;;;;;;21.70;12.20;;;-0.10;63.10;;;;;;4986041;28;20206;-82
2022/03/09 05:14:10;;;;;;;22.67;12.50;;;-0.10;63.10;;;;;;4986957;28;20198;-82
2022/03/09 05:16:39;;;;;;;17.60;11.40;;;-0.10;63.10;;;;;;4991465;28;20763;-82
2022/03/09 05:19:07;;;;;;;17.95;11.98;;;-0.10;63.10;;;;;;4984139;28;20354;-82
2022/03/09 05:21:37;;;;;;;19.40;11.85;;;-0.20;63.10;;;;;;4986667;28;20219;-83
2022/03/09 05:24:06;;;;;;;22.35;12.98;;;-0.20;63.10;;;;;;4985045;28;20795;-82
2022/03/09 05:26:37;;;;;;;17.00;10.93;;;-0.10;63.20;;;;;;4989336;28;20210;-82
2022/03/09 05:29:05;;;;;;;19.42;11.40;;;-0.10;63.20;;;;;;5002798;28;20237;-82
2022/03/09 05:31:32;;;;;;;21.58;12.75;;;-0.10;63.20;;;;;;4986354;28;20238;-81
2022/03/09 05:34:02;;;;;;;21.70;12.73;;;-0.10;63.20;;;;;;4986239;28;20203;-82
2022/03/09 05:36:30;;;;;;;18.73;12.40;;;-0.10;63.30;;;;;;4983843;28;20672;-82
2022/03/09 05:38:58;;;;;;;21.02;10.55;;;-0.10;63.30;;;;;;4987383;28;20225;-85
2022/03/09 05:41:28;;;;;;;21.27;14.35;;;-0.10;63.40;;;;;;4986469;28;20306;-85
2022/03/09 05:43:58;;;;;;;20.05;11.77;;;-0.10;63.40;;;;;;4999687;28;20207;-83
2022/03/09 05:46:26;;;;;;;17.02;11.85;;;-0.10;63.30;;;;;;4981646;28;20571;-83
2022/03/09 05:48:54;;;;;;;19.88;11.93;;;-0.10;63.40;;;;;;4984755;28;20716;-83
2022/03/09 05:51:23;;;;;;;20.55;12.40;;;-0.20;63.40;;;;;;4985954;28;20218;-84
2022/03/09 05:53:51;;;;;;;20.40;12.70;;;-0.20;63.30;;;;;;4984000;28;20203;-85
2022/03/09 05:56:19;;;;;;;21.52;13.05;;;-0.30;63.40;;;;;;4985932;28;20206;-83
2022/03/09 05:58:47;;;;;;;19.15;12.75;;;-0.30;63.30;;;;;;4985841;28;20269;-84
2022/03/09 06:01:15;;;;;;;20.67;12.05;;;-0.40;63.20;;;;;;5000480;28;20289;-83
2022/03/09 06:03:43;;;;;;;22.83;15.38;;;-0.40;63.30;;;;;;4984912;28;20211;-83
2022/03/09 06:06:11;;;;;;;20.58;13.02;;;-0.40;63.60;;;;;;4986039;28;20194;-84
2022/03/09 06:08:40;;;;;;;23.73;13.30;;;-0.40;63.70;;;;;;4988552;28;20215;-83
2022/03/09 06:11:09;;;;;;;23.35;13.85;;;-0.40;63.70;;;;;;4985176;28;20242;-84
2022/03/09 06:13:37;;;;;;;20.45;12.98;;;-0.50;63.70;;;;;;4984414;28;20194;-83
2022/03/09 06:16:05;;;;;;;20.00;12.65;;;-0.50;63.70;;;;;;4986050;28;20218;-84
2022/03/09 06:18:34;;;;;;;25.20;14.10;;;-0.50;63.80;;;;;;4998468;28;20266;-83
2022/03/09 06:21:02;;;;;;;20.42;13.40;;;-0.50;64.00;;;;;;4986232;28;20206;-84
2022/03/09 06:23:31;;;;;;;20.88;12.88;;;-0.50;63.90;;;;;;5000217;28;20199;-84
2022/03/09 06:26:00;;;;;;;21.85;14.13;;;-0.50;63.90;;;;;;4985614;28;20211;-84
2022/03/09 06:28:29;;;;;;;27.52;15.27;;;-0.50;63.80;;;;;;4985866;28;20230;-84
2022/03/09 06:30:57;;;;;;;34.78;19.70;;;-0.50;63.80;;;;;;4985660;28;20254;-84
2022/03/09 06:33:25;;;;;;;42.60;24.27;;;-0.60;63.90;;;;;;4985136;28;20199;-84
2022/03/09 06:35:56;;;;;;;32.15;17.95;;;-0.60;63.90;;;;;;4986212;28;20691;-84
2022/03/09 06:38:24;;;;;;;40.33;20.48;;;-0.60;64.10;;;;;;4986208;28;20205;-84
2022/03/09 06:40:52;;;;;;;36.55;18.38;;;-0.50;64.20;;;;;;4984775;28;20684;-84
2022/03/09 06:43:21;;;;;;;36.47;22.55;;;-0.50;64.30;;;;;;4988045;28;20215;-83
2022/03/09 06:45:49;;;;;;;41.47;23.02;;;-0.40;64.40;;;;;;4983143;28;20911;-84
2022/03/09 06:48:17;;;;;;;36.85;19.20;;;-0.40;64.40;;;;;;4981216;28;20230;-84
2022/03/09 06:50:45;;;;;;;30.00;18.70;;;-0.30;64.50;;;;;;4982346;28;20984;-84
2022/03/09 06:53:16;;;;;;;23.45;15.30;;;-0.30;64.50;;;;;;4986019;28;20237;-84
2022/03/09 06:55:44;;;;;;;36.97;19.05;;;-0.20;64.60;;;;;;4997525;28;20198;-84
2022/03/09 06:58:12;;;;;;;43.53;20.50;;;-0.20;64.50;;;;;;4980651;28;20203;-84
2022/03/09 07:00:42;;;;;;;39.03;20.77;;;-0.20;64.50;;;;;;4982141;28;20238;-84
2022/03/09 07:03:10;;;;;;;33.28;19.88;;;-0.20;64.50;;;;;;4983674;28;20593;-84
2022/03/09 07:05:38;;;;;;;44.38;23.17;;;-0.10;64.60;;;;;;4984740;28;20880;-84
2022/03/09 07:08:07;;;;;;;29.40;18.92;;;-0.10;64.90;;;;;;4988653;28;20696;-84
2022/03/09 07:10:36;;;;;;;25.35;15.50;;;0.00;64.90;;;;;;4986004;28;20356;-83
2022/03/09 07:13:04;;;;;;;23.70;14.93;;;0.00;64.90;;;;;;4984764;28;20257;-84
2022/03/09 07:15:33;;;;;;;20.70;13.75;;;0.10;64.90;;;;;;4984448;28;20238;-83
2022/03/09 07:18:03;;;;;;;24.52;13.45;;;0.20;65.00;;;;;;4999566;28;20365;-84
2022/03/09 07:20:31;;;;;;;20.77;13.65;;;0.20;65.00;;;;;;4985572;28;20218;-84
2022/03/09 07:22:59;;;;;;;23.58;14.07;;;0.30;65.10;;;;;;4999063;28;20273;-84
2022/03/09 07:25:27;;;;;;;21.30;12.75;;;0.30;65.10;;;;;;4986165;28;20249;-84
2022/03/09 07:28:03;;;;;;;20.88;13.52;;;0.40;65.20;;;;;;4985902;28;20221;-84
2022/03/09 07:30:31;;;;;;;24.35;14.55;;;0.40;65.30;;;;;;5000423;28;20248;-84
2022/03/09 07:32:59;;;;;;;23.58;13.48;;;0.50;65.40;;;;;;4985042;28;20199;-84
2022/03/09 07:35:29;;;;;;;23.35;13.65;;;0.60;65.50;;;;;;4985988;28;20202;-84
2022/03/09 07:37:58;;;;;;;26.77;14.18;;;0.60;65.60;;;;;;4989392;28;20206;-82
2022/03/09 07:40:26;;;;;;;27.10;15.23;;;0.70;65.60;;;;;;5004694;28;20234;-84
2022/03/09 07:42:54;;;;;;;25.05;12.80;;;0.80;65.70;;;;;;5004366;28;20794;-84
2022/03/09 07:45:22;;;;;;;24.40;13.88;;;0.90;65.70;;;;;;5004439;28;20214;-83
2022/03/09 07:47:50;;;;;;;30.00;14.80;;;1.00;65.70;;;;;;4987003;28;20286;-84
2022/03/09 07:50:18;;;;;;;33.25;15.43;;;1.10;65.70;;;;;;4989671;28;20230;-83
2022/03/09 07:52:47;;;;;;;19.63;13.77;;;1.10;65.70;;;;;;4989116;28;20199;-85
2022/03/09 07:55:15;;;;;;;34.88;15.85;;;1.20;65.80;;;;;;4983992;28;20221;-85
2022/03/09 07:57:44;;;;;;;30.58;15.35;;;1.30;65.80;;;;;;4993812;28;20211;-84
2022/03/09 08:00:13;;;;;;;24.77;15.85;;;1.40;65.80;;;;;;4987635;28;20223;-84
2022/03/09 08:02:43;;;;;;;32.08;17.90;;;1.50;65.80;;;;;;4985066;28;20286;-84
2022/03/09 08:05:12;;;;;;;42.72;26.02;;;1.60;65.80;;;;;;4990710;28;20194;-84
2022/03/09 08:07:40;;;;;;;38.90;28.17;;;1.60;65.80;;;;;;5003434;28;20241;-85
2022/03/09 08:10:10;;;;;;;33.78;20.27;;;1.70;65.80;;;;;;5007038;28;20229;-85
2022/03/09 08:12:39;;;;;;;36.58;18.92;;;1.80;65.70;;;;;;4989568;28;20282;-85
2022/03/09 08:15:10;;;;;;;36.25;19.00;;;1.90;65.70;;;;;;4989964;28;20202;-85
2022/03/09 08:17:38;;;;;;;27.73;16.17;;;1.90;65.70;;;;;;4992027;28;20206;-85
2022/03/09 08:20:08;;;;;;;27.25;17.65;;;2.00;65.80;;;;;;4992738;28;20238;-85
2022/03/09 08:22:35;;;;;;;31.88;18.13;;;2.10;65.90;;;;;;4992283;28;20226;-85
2022/03/09 08:25:04;;;;;;;28.27;18.98;;;2.10;65.90;;;;;;4989131;28;20218;-85
2022/03/09 08:27:33;;;;;;;25.45;16.23;;;2.20;66.00;;;;;;4989118;28;20203;-85
2022/03/09 08:30:09;;;;;;;27.58;17.02;;;2.30;66.00;;;;;;4989363;28;20223;-84
2022/03/09 08:32:37;;;;;;;25.73;16.23;;;2.40;66.10;;;;;;4986297;28;20877;-85
2022/03/09 08:35:07;;;;;;;28.58;14.95;;;2.50;66.00;;;;;;4989338;28;20187;-85
2022/03/09 08:37:35;;;;;;;30.98;16.20;;;2.60;66.00;;;;;;5004061;28;20211;-84
2022/03/09 08:40:04;;;;;;;26.25;14.57;;;2.70;65.90;;;;;;4993886;28;20435;-85
2022/03/09 08:42:33;;;;;;;24.67;15.75;;;2.70;66.00;;;;;;4985765;28;20195;-85
2022/03/09 08:45:01;;;;;;;26.90;15.40;;;2.80;66.00;;;;;;4989047;28;20187;-84
2022/03/09 08:47:29;;;;;;;24.42;14.85;;;2.90;66.00;;;;;;4994993;28;20234;-85
2022/03/09 08:49:57;;;;;;;21.77;15.35;;;3.00;66.00;;;;;;4988352;28;20261;-85
2022/03/09 08:52:45;;;;;;;24.30;14.63;;;3.10;65.90;;;;;;5002648;28;20207;-85
2022/03/09 08:55:13;;;;;;;23.00;13.70;;;3.20;65.90;;;;;;4989040;28;20211;-85
2022/03/09 08:57:42;;;;;;;22.48;13.27;;;3.30;65.80;;;;;;4988740;28;20206;-85
2022/03/09 09:00:11;;;;;;;22.52;15.32;;;3.40;65.80;;;;;;4997594;28;20241;-84
2022/03/09 09:02:39;;;;;;;23.23;14.10;;;3.50;65.80;;;;;;4999107;28;20233;-85
2022/03/09 09:05:09;;;;;;;24.33;14.75;;;3.60;65.70;;;;;;4988632;28;20207;-85
2022/03/09 09:07:37;;;;;;;26.40;15.43;;;3.70;65.80;;;;;;4988125;28;20203;-84
2022/03/09 09:10:06;;;;;;;24.77;14.90;;;3.80;65.80;;;;;;4992385;28;20226;-85
2022/03/09 09:12:34;;;;;;;25.00;14.82;;;4.00;65.60;;;;;;5002375;28;20203;-84
2022/03/09 09:15:04;;;;;;;19.40;11.98;;;4.00;65.50;;;;;;4988347;28;20203;-84
2022/03/09 09:17:32;;;;;;;23.30;12.65;;;4.20;65.40;;;;;;5002744;28;20237;-85
2022/03/09 09:20:08;;;;;;;18.55;11.77;;;4.20;65.40;;;;;;5001389;28;20230;-85
2022/03/09 09:22:42;;;;;;;24.95;13.27;;;4.40;65.40;;;;;;4987084;28;20630;-84
2022/03/09 09:25:30;;;;;;;19.90;12.90;;;4.40;65.20;;;;;;4987980;28;20871;-84
2022/03/09 09:28:00;;;;;;;19.80;12.82;;;4.50;65.10;;;;;;5002146;28;20206;-84
2022/03/09 09:30:30;;;;;;;27.45;13.07;;;4.60;65.10;;;;;;4988590;28;20254;-84
2022/03/09 09:32:59;;;;;;;19.52;12.68;;;4.70;65.00;;;;;;4985594;28;20302;-85
2022/03/09 09:35:28;;;;;;;16.48;11.70;;;4.80;65.00;;;;;;4994267;28;20207;-85
2022/03/09 09:38:08;;;;;;;15.35;10.23;;;4.90;64.90;;;;;;5000470;28;20597;-84
2022/03/09 09:40:40;;;;;;;17.80;10.63;;;5.00;64.80;;;;;;4985893;28;20250;-85
2022/03/09 09:43:11;;;;;;;17.55;11.55;;;5.10;64.40;;;;;;4983015;28;20253;-84
2022/03/09 09:45:41;;;;;;;24.73;13.43;;;5.20;64.20;;;;;;4986283;28;20222;-84
2022/03/09 09:48:10;;;;;;;22.73;15.48;;;5.30;64.10;;;;;;4983970;28;20202;-85
2022/03/09 09:50:39;;;;;;;18.30;12.07;;;5.50;63.90;;;;;;4987052;28;20234;-84
2022/03/09 09:53:10;;;;;;;17.00;10.82;;;5.60;63.90;;;;;;4983501;28;20207;-84
2022/03/09 09:55:38;;;;;;;13.57;9.85;;;5.60;63.60;;;;;;4987069;28;20207;-85
2022/03/09 09:58:07;;;;;;;17.52;10.82;;;5.70;63.10;;;;;;4986977;28;20206;-85
2022/03/09 10:00:35;;;;;;;20.73;11.55;;;5.80;62.90;;;;;;4985635;28;20242;-85
2022/03/09 10:03:06;;;;;;;14.88;10.23;;;5.90;62.70;;;;;;4981312;28;20305;-84
2022/03/09 10:05:34;;;;;;;20.23;12.05;;;6.00;62.70;;;;;;4991747;28;20222;-84
2022/03/09 10:08:10;;;;;;;21.92;12.63;;;6.10;62.50;;;;;;4986861;28;20207;-85
2022/03/09 10:10:40;;;;;;;18.20;10.70;;;6.10;62.30;;;;;;4991074;28;20324;-85
2022/03/09 10:13:15;;;;;;;21.75;11.35;;;6.20;62.20;;;;;;4986345;28;20199;-85
2022/03/09 10:15:44;;;;;;;17.52;9.85;;;6.20;61.90;;;;;;4987585;28;20999;-85
2022/03/09 10:18:19;;;;;;;19.58;10.80;;;6.30;61.80;;;;;;4986908;28;20195;-85
2022/03/09 10:20:48;;;;;;;16.15;10.25;;;6.40;61.80;;;;;;4986302;28;20222;-84
2022/03/09 10:23:17;;;;;;;18.38;11.77;;;6.50;61.30;;;;;;5000787;28;20203;-85
2022/03/09 10:25:47;;;;;;;15.82;11.18;;;6.50;61.60;;;;;;4986362;28;20616;-85
2022/03/09 10:28:16;;;;;;;16.13;9.82;;;6.60;61.10;;;;;;5001832;28;20221;-85
2022/03/09 10:30:44;;;;;;;15.80;11.70;;;6.60;61.10;;;;;;4983500;28;20234;-86
2022/03/09 10:33:13;;;;;;;15.05;11.10;;;6.70;60.70;;;;;;4982483;28;20217;-85
2022/03/09 10:35:49;;;;;;;17.63;10.75;;;6.80;60.70;;;;;;4984082;28;20230;-85
2022/03/09 10:38:29;;;;;;;16.40;11.45;;;6.80;60.50;;;;;;5001718;28;20217;-85
2022/03/09 10:41:00;;;;;;;14.88;10.25;;;6.80;60.30;;;;;;4985201;28;20210;-84
2022/03/09 10:43:30;;;;;;;16.83;10.07;;;6.90;60.30;;;;;;4988691;28;20314;-85
2022/03/09 10:46:05;;;;;;;19.02;10.93;;;6.90;60.20;;;;;;4985632;28;20227;-84
2022/03/09 10:48:58;;;;;;;19.90;12.52;;;7.00;59.90;;;;;;4976791;28;21062;-83
2022/03/09 10:51:29;;;;;;;15.75;10.73;;;7.00;59.80;;;;;;4985375;28;20197;-84
2022/03/09 10:53:58;;;;;;;16.07;10.43;;;7.00;59.80;;;;;;4984526;28;20203;-84
2022/03/09 10:56:28;;;;;;;17.73;12.30;;;7.00;59.80;;;;;;4984036;28;21172;-84
2022/03/09 10:58:56;;;;;;;15.52;10.48;;;7.00;59.70;;;;;;5000779;28;20229;-84
2022/03/09 11:01:25;;;;;;;17.23;9.95;;;7.00;59.50;;;;;;4984907;28;20234;-83
2022/03/09 11:03:54;;;;;;;17.10;10.25;;;7.10;59.30;;;;;;4984378;28;20816;-84
2022/03/09 11:06:23;;;;;;;20.85;14.15;;;7.10;59.40;;;;;;4988196;28;20295;-83
2022/03/09 11:08:54;;;;;;;22.90;13.63;;;7.20;59.40;;;;;;4981838;28;20234;-83
2022/03/09 11:11:23;;;;;;;19.90;11.05;;;7.20;59.10;;;;;;5000760;28;20257;-83
2022/03/09 11:13:51;;;;;;;20.23;11.55;;;7.30;59.00;;;;;;4984483;28;20217;-83
2022/03/09 11:16:20;;;;;;;19.50;12.27;;;7.30;58.60;;;;;;4985488;28;20576;-83
2022/03/09 11:18:48;;;;;;;18.70;11.32;;;7.40;58.90;;;;;;4984158;28;20488;-83
2022/03/09 11:21:18;;;;;;;24.13;11.90;;;7.50;58.90;;;;;;4985299;28;20711;-83
2022/03/09 11:23:46;;;;;;;16.08;10.50;;;7.60;58.70;;;;;;4983586;28;20987;-84
2022/03/09 11:26:19;;;;;;;22.20;11.27;;;7.60;58.70;;;;;;4986230;28;20226;-83
2022/03/09 11:28:47;;;;;;;22.00;12.20;;;7.60;58.30;;;;;;4985570;28;20489;-83
2022/03/09 11:31:17;;;;;;;52.83;22.60;;;7.60;58.10;;;;;;4981768;28;20480;-81
2022/03/09 11:33:47;;;;;;;22.00;11.18;;;7.70;58.00;;;;;;4983574;28;20841;-83
2022/03/09 11:36:35;;;;;;;16.00;9.60;;;7.80;57.90;;;;;;4985311;28;20197;-81
2022/03/09 11:39:22;;;;;;;13.55;7.72;;;7.90;57.20;;;;;;4985686;28;20245;-81
2022/03/09 11:42:28;;;;;;;12.30;7.70;;;8.00;57.40;;;;;;5003075;28;20206;-83
2022/03/09 11:45:17;;;;;;;16.30;9.10;;;8.10;56.70;;;;;;5001460;28;22367;-83
2022/03/09 11:48:04;;;;;;;16.50;10.33;;;8.10;56.30;;;;;;4985638;28;20261;-83
2022/03/09 11:50:34;;;;;;;14.97;10.00;;;8.20;56.70;;;;;;4985859;28;20477;-83
2022/03/09 11:53:05;;;;;;;15.67;9.10;;;8.20;56.60;;;;;;4999119;28;21041;-83
2022/03/09 11:55:34;;;;;;;20.30;9.83;;;8.30;56.60;;;;;;5000797;28;20481;-82
2022/03/09 11:58:09;;;;;;;17.73;9.43;;;8.30;55.50;;;;;;4985814;28;20488;-82
2022/03/09 12:00:39;;;;;;;17.10;8.50;;;8.50;56.10;;;;;;5000304;28;20539;-82
2022/03/09 12:03:07;;;;;;;20.80;9.67;;;8.60;55.90;;;;;;4984885;28;20466;-83
2022/03/09 12:05:38;;;;;;;22.83;11.60;;;8.60;55.80;;;;;;4986369;28;20465;-82
2022/03/09 12:08:09;;;;;;;16.70;10.77;;;8.60;55.20;;;;;;4985384;28;20493;-82
2022/03/09 12:10:52;;;;;;;18.90;9.60;;;8.60;55.20;;;;;;4985370;28;20601;-82
2022/03/09 12:13:35;;;;;;;16.00;10.00;;;8.60;55.10;;;;;;4984801;28;20442;-83
2022/03/09 12:16:15;;;;;;;14.00;9.23;;;8.70;55.10;;;;;;4984082;28;20480;-82
2022/03/09 12:18:47;;;;;;;16.73;9.20;;;8.70;54.60;;;;;;4998476;28;20469;-82
2022/03/09 12:21:16;;;;;;;13.80;8.30;;;8.80;54.20;;;;;;4986241;28;20911;-83
2022/03/09 12:24:33;;;;;;;13.53;8.50;;;8.90;54.40;;;;;;4986444;28;21145;-83
2022/03/09 12:27:01;;;;;;;13.20;8.10;;;8.90;53.90;;;;;;4988650;28;21102;-83
2022/03/09 12:29:41;;;;;;;14.20;7.93;;;8.90;54.10;;;;;;4988832;28;20473;-83
2022/03/09 12:32:14;;;;;;;17.33;8.97;;;9.00;53.40;;;;;;4981701;28;20477;-83
2022/03/09 12:34:44;;;;;;;12.43;8.20;;;9.00;53.40;;;;;;4987266;28;20545;-83
2022/03/09 12:37:14;;;;;;;12.10;7.63;;;9.00;52.90;;;;;;5003826;28;20461;-82
2022/03/09 12:39:49;;;;;;;11.47;8.00;;;9.10;52.90;;;;;;4988422;28;20475;-83
2022/03/09 12:42:18;;;;;;;16.40;8.73;;;9.10;52.60;;;;;;4982941;28;21228;-82
2022/03/09 12:44:49;;;;;;;14.17;8.97;;;9.20;52.70;;;;;;4993194;28;20462;-83
2022/03/09 12:47:19;;;;;;;14.27;8.70;;;9.20;52.70;;;;;;4987940;28;20991;-82
2022/03/09 12:49:52;;;;;;;17.20;9.00;;;9.30;52.50;;;;;;5002329;28;20485;-82
2022/03/09 12:52:21;;;;;;;12.77;7.70;;;9.30;52.10;;;;;;5003150;28;20458;-83